Blossvale, New York
Current Conditions -  °F | °C
As of 4:53 PM on Wednesday 22 Oct 2014 (Local Time) from KRME Reporting Station
Overcast Overcast  
Wind Chill: 52°   Ceiling: 6000
Heat Index: 52°   Visibility: 10mi
Dew Point: 44°   Wind: 13mph
Humidity: 74%   Direction: 340°NNW
Pressure: 30.09"   Gusts: NA
Location:  43.28°N, 75.64°W
Report Text: KRME 222053Z 34011KT 10SM FEW050 BKN060 OVC085 11/07 A3009 RMK AO2 SLP189 T01110067 55007
Loading
Personal Weather Stations






























Interactive Weather Map
Tropical Storm Tracking
New forecast layout! Learn more

10-Day Weather Forecast

Advertisements
Track Severe Weather on mobile